sensor_id;sensor_type;location;lat;lon;timestamp;temperature;humidity
1181;DHT22;579;52.046;8.532;2023-03-01T00:00:24;0.50;1.00
1181;DHT22;579;52.046;8.532;2023-03-01T00:02:50;0.60;1.00
1181;DHT22;579;52.046;8.532;2023-03-01T00:05:16;0.50;1.00
1181;DHT22;579;52.046;8.532;2023-03-01T00:07:43;0.60;1.00
1181;DHT22;579;52.046;8.532;2023-03-01T00:10:10;0.40;1.00
1181;DHT22;579;52.046;8.532;2023-03-01T00:12:36;0.40;1.00
1181;DHT22;579;52.046;8.532;2023-03-01T00:20:09;0.20;1.00
1181;DHT22;579;52.046;8.532;2023-03-01T00:22:36;0.20;1.00
1181;DHT22;579;52.046;8.532;2023-03-01T00:25:03;0.30;1.00
1181;DHT22;579;52.046;8.532;2023-03-01T00:27:30;0.10;1.00
1181;DHT22;579;52.046;8.532;2023-03-01T00:29:56;0.10;1.00
1181;DHT22;579;52.046;8.532;2023-03-01T00:32:22;0.10;1.00
1181;DHT22;579;52.046;8.532;2023-03-01T00:34:49;0.30;1.00
1181;DHT22;579;52.046;8.532;2023-03-01T00:39:59;0.00;1.00
1181;DHT22;579;52.046;8.532;2023-03-01T00:42:25;0.00;1.00
1181;DHT22;579;52.046;8.532;2023-03-01T00:44:51;-0.20;1.00
1181;DHT22;579;52.046;8.532;2023-03-01T00:47:17;0.10;1.00
1181;DHT22;579;52.046;8.532;2023-03-01T00:49:43;0.00;1.00
1181;DHT22;579;52.046;8.532;2023-03-01T00:52:10;0.20;1.00
1181;DHT22;579;52.046;8.532;2023-03-01T00:54:36;0.00;1.00
1181;DHT22;579;52.046;8.532;2023-03-01T00:59:45;-0.10;1.00
1181;DHT22;579;52.046;8.532;2023-03-01T01:02:11;0.20;1.00
1181;DHT22;579;52.046;8.532;2023-03-01T01:04:37;0.10;1.00
1181;DHT22;579;52.046;8.532;2023-03-01T01:07:04;0.00;1.00
1181;DHT22;579;52.046;8.532;2023-03-01T01:09:31;0.10;1.00
1181;DHT22;579;52.046;8.532;2023-03-01T01:11:57;0.00;1.00
1181;DHT22;579;52.046;8.532;2023-03-01T01:14:23;-0.10;1.00
1181;DHT22;579;52.046;8.532;2023-03-01T01:16:50;-0.30;1.00
1181;DHT22;579;52.046;8.532;2023-03-01T01:23:47;-0.30;1.00
1181;DHT22;579;52.046;8.532;2023-03-01T01:26:15;-0.20;1.00
1181;DHT22;579;52.046;8.532;2023-03-01T01:28:42;-0.20;1.00
1181;DHT22;579;52.046;8.532;2023-03-01T01:31:08;-0.30;1.00
1181;DHT22;579;52.046;8.532;2023-03-01T01:33:35;-0.40;1.00
1181;DHT22;579;52.046;8.532;2023-03-01T01:36:03;-0.40;1.00
1181;DHT22;579;52.046;8.532;2023-03-01T01:38:30;-0.30;1.00
1181;DHT22;579;52.046;8.532;2023-03-01T01:40:58;-0.40;1.00
1181;DHT22;579;52.046;8.532;2023-03-01T01:43:47;-0.40;1.00
1181;DHT22;579;52.046;8.532;2023-03-01T01:46:21;-0.50;1.00
1181;DHT22;579;52.046;8.532;2023-03-01T01:48:55;-0.70;1.00
1181;DHT22;579;52.046;8.532;2023-03-01T01:51:27;-0.70;1.00
1181;DHT22;579;52.046;8.532;2023-03-01T01:54:07;-0.70;1.00
1181;DHT22;579;52.046;8.532;2023-03-01T01:56:37;-0.70;1.00
1181;DHT22;579;52.046;8.532;2023-03-01T01:59:05;-0.80;1.00
1181;DHT22;579;52.046;8.532;2023-03-01T02:01:31;-0.70;1.00
1181;DHT22;579;52.046;8.532;2023-03-01T02:04:12;-0.50;1.00
1181;DHT22;579;52.046;8.532;2023-03-01T02:06:43;-0.60;1.00
1181;DHT22;579;52.046;8.532;2023-03-01T02:09:14;-0.40;1.00
1181;DHT22;579;52.046;8.532;2023-03-01T02:11:42;-0.60;1.00
1181;DHT22;579;52.046;8.532;2023-03-01T02:14:09;-0.60;1.00
1181;DHT22;579;52.046;8.532;2023-03-01T02:16:36;-0.70;1.00
1181;DHT22;579;52.046;8.532;2023-03-01T02:19:03;-0.70;1.00
1181;DHT22;579;52.046;8.532;2023-03-01T02:25:47;-0.80;1.00
1181;DHT22;579;52.046;8.532;2023-03-01T02:28:29;-0.90;1.00
1181;DHT22;579;52.046;8.532;2023-03-01T02:30:56;-1.00;1.00
1181;DHT22;579;52.046;8.532;2023-03-01T02:33:41;-0.80;1.00
1181;DHT22;579;52.046;8.532;2023-03-01T02:36:11;-0.70;1.00
1181;DHT22;579;52.046;8.532;2023-03-01T02:38:40;-0.70;1.00
1181;DHT22;579;52.046;8.532;2023-03-01T02:41:08;-0.70;1.00
1181;DHT22;579;52.046;8.532;2023-03-01T02:48:45;-0.90;1.00
1181;DHT22;579;52.046;8.532;2023-03-01T02:51:38;-1.10;1.00
1181;DHT22;579;52.046;8.532;2023-03-01T02:54:16;-0.90;1.00
1181;DHT22;579;52.046;8.532;2023-03-01T02:56:47;-1.10;1.00
1181;DHT22;579;52.046;8.532;2023-03-01T02:59:15;-1.10;1.00
1181;DHT22;579;52.046;8.532;2023-03-01T03:01:42;-1.00;1.00
1181;DHT22;579;52.046;8.532;2023-03-01T03:04:10;-1.00;1.00
1181;DHT22;579;52.046;8.532;2023-03-01T03:09:21;-0.90;1.00
1181;DHT22;579;52.046;8.532;2023-03-01T03:11:48;-1.10;1.00
1181;DHT22;579;52.046;8.532;2023-03-01T03:14:16;-1.00;1.00
1181;DHT22;579;52.046;8.532;2023-03-01T03:16:44;-1.00;1.00
1181;DHT22;579;52.046;8.532;2023-03-01T03:19:12;-1.00;1.00
1181;DHT22;579;52.046;8.532;2023-03-01T03:21:39;-1.20;1.00
1181;DHT22;579;52.046;8.532;2023-03-01T03:24:05;-1.40;1.00
1181;DHT22;579;52.046;8.532;2023-03-01T03:26:32;-1.50;1.00
1181;DHT22;579;52.046;8.532;2023-03-01T03:31:34;-1.70;1.00
1181;DHT22;579;52.046;8.532;2023-03-01T03:34:00;-1.60;1.00
1181;DHT22;579;52.046;8.532;2023-03-01T03:36:27;-1.60;1.00
1181;DHT22;579;52.046;8.532;2023-03-01T03:38:53;-1.60;1.00
1181;DHT22;579;52.046;8.532;2023-03-01T03:41:19;-1.70;1.00
1181;DHT22;579;52.046;8.532;2023-03-01T03:43:45;-1.40;1.00
1181;DHT22;579;52.046;8.532;2023-03-01T03:46:12;-1.50;1.00
1181;DHT22;579;52.046;8.532;2023-03-01T03:51:46;-1.60;1.00
1181;DHT22;579;52.046;8.532;2023-03-01T03:54:12;-1.50;1.00
1181;DHT22;579;52.046;8.532;2023-03-01T03:56:38;-1.30;1.00
1181;DHT22;579;52.046;8.532;2023-03-01T03:59:04;-1.30;1.00
1181;DHT22;579;52.046;8.532;2023-03-01T04:01:31;-1.40;1.00
1181;DHT22;579;52.046;8.532;2023-03-01T04:03:57;-1.40;1.00
1181;DHT22;579;52.046;8.532;2023-03-01T04:06:30;-1.50;1.00
1181;DHT22;579;52.046;8.532;2023-03-01T04:08:57;-1.50;1.00
1181;DHT22;579;52.046;8.532;2023-03-01T04:16:16;-1.50;1.00
1181;DHT22;579;52.046;8.532;2023-03-01T04:18:43;-1.30;1.00
1181;DHT22;579;52.046;8.532;2023-03-01T04:21:09;-1.20;1.00
1181;DHT22;579;52.046;8.532;2023-03-01T04:23:39;-1.40;1.00
1181;DHT22;579;52.046;8.532;2023-03-01T04:26:06;-1.50;1.00
1181;DHT22;579;52.046;8.532;2023-03-01T04:28:34;-1.50;1.00
1181;DHT22;579;52.046;8.532;2023-03-01T04:31:04;-1.50;1.00
1181;DHT22;579;52.046;8.532;2023-03-01T04:39:10;-1.60;1.00
1181;DHT22;579;52.046;8.532;2023-03-01T04:41:38;-1.60;1.00
1181;DHT22;579;52.046;8.532;2023-03-01T04:44:05;-1.50;1.00
1181;DHT22;579;52.046;8.532;2023-03-01T04:46:32;-1.60;1.00
1181;DHT22;579;52.046;8.532;2023-03-01T04:48:58;-1.60;1.00
1181;DHT22;579;52.046;8.532;2023-03-01T04:51:24;-1.80;1.00
1181;DHT22;579;52.046;8.532;2023-03-01T04:53:50;-1.50;1.00
1181;DHT22;579;52.046;8.532;2023-03-01T04:59:15;-1.40;1.00
1181;DHT22;579;52.046;8.532;2023-03-01T05:01:42;-1.40;1.00
1181;DHT22;579;52.046;8.532;2023-03-01T05:04:08;-1.30;1.00
1181;DHT22;579;52.046;8.532;2023-03-01T05:06:38;-1.30;1.00
1181;DHT22;579;52.046;8.532;2023-03-01T05:09:05;-1.40;1.00
1181;DHT22;579;52.046;8.532;2023-03-01T05:11:31;-1.20;1.00
1181;DHT22;579;52.046;8.532;2023-03-01T05:14:01;-1.40;1.00
1181;DHT22;579;52.046;8.532;2023-03-01T05:16:28;-1.40;1.00
1181;DHT22;579;52.046;8.532;2023-03-01T05:21:35;-1.60;1.00
1181;DHT22;579;52.046;8.532;2023-03-01T05:24:21;-1.70;1.00
1181;DHT22;579;52.046;8.532;2023-03-01T05:26:47;-1.90;1.00
1181;DHT22;579;52.046;8.532;2023-03-01T05:29:13;-1.70;1.00
1181;DHT22;579;52.046;8.532;2023-03-01T05:31:40;-1.20;1.00
1181;DHT22;579;52.046;8.532;2023-03-01T05:34:06;-1.40;1.00
1181;DHT22;579;52.046;8.532;2023-03-01T05:36:32;-1.60;1.00
1181;DHT22;579;52.046;8.532;2023-03-01T05:39:00;-1.70;1.00
1181;DHT22;579;52.046;8.532;2023-03-01T05:46:32;-1.90;1.00
1181;DHT22;579;52.046;8.532;2023-03-01T05:48:58;-2.10;1.00
1181;DHT22;579;52.046;8.532;2023-03-01T05:51:25;-1.80;1.00
1181;DHT22;579;52.046;8.532;2023-03-01T05:53:51;-1.80;1.00
1181;DHT22;579;52.046;8.532;2023-03-01T05:56:17;-1.80;1.00
1181;DHT22;579;52.046;8.532;2023-03-01T05:58:43;-1.90;1.00
1181;DHT22;579;52.046;8.532;2023-03-01T06:01:11;-1.90;1.00
1181;DHT22;579;52.046;8.532;2023-03-01T06:03:39;-1.90;1.00
1181;DHT22;579;52.046;8.532;2023-03-01T06:08:45;-2.20;1.00
1181;DHT22;579;52.046;8.532;2023-03-01T06:11:11;-2.00;1.00
1181;DHT22;579;52.046;8.532;2023-03-01T06:13:37;-2.20;1.00
1181;DHT22;579;52.046;8.532;2023-03-01T06:16:05;-2.10;1.00
1181;DHT22;579;52.046;8.532;2023-03-01T06:18:31;-2.00;1.00
1181;DHT22;579;52.046;8.532;2023-03-01T06:20:57;-1.90;1.00
1181;DHT22;579;52.046;8.532;2023-03-01T06:23:24;-1.80;1.00
1181;DHT22;579;52.046;8.532;2023-03-01T06:28:44;-1.80;1.00
1181;DHT22;579;52.046;8.532;2023-03-01T06:31:11;-1.80;1.00
1181;DHT22;579;52.046;8.532;2023-03-01T06:33:37;-1.80;1.00
1181;DHT22;579;52.046;8.532;2023-03-01T06:36:04;-2.00;1.00
1181;DHT22;579;52.046;8.532;2023-03-01T06:38:31;-2.00;1.00
1181;DHT22;579;52.046;8.532;2023-03-01T06:40:57;-2.00;1.00
1181;DHT22;579;52.046;8.532;2023-03-01T06:43:23;-2.00;1.00
1181;DHT22;579;52.046;8.532;2023-03-01T06:48:46;-1.50;1.00
1181;DHT22;579;52.046;8.532;2023-03-01T06:51:13;-1.80;1.00
1181;DHT22;579;52.046;8.532;2023-03-01T06:53:39;-1.60;1.00
1181;DHT22;579;52.046;8.532;2023-03-01T06:56:05;-1.40;1.00
1181;DHT22;579;52.046;8.532;2023-03-01T06:58:32;-1.20;1.00
1181;DHT22;579;52.046;8.532;2023-03-01T07:00:58;-1.20;1.00
1181;DHT22;579;52.046;8.532;2023-03-01T07:03:24;-1.50;1.00
1181;DHT22;579;52.046;8.532;2023-03-01T07:05:51;-1.30;1.00
1181;DHT22;579;52.046;8.532;2023-03-01T07:13:18;-1.50;1.00
1181;DHT22;579;52.046;8.532;2023-03-01T07:15:44;-1.40;1.00
1181;DHT22;579;52.046;8.532;2023-03-01T07:18:10;-1.30;1.00
1181;DHT22;579;52.046;8.532;2023-03-01T07:20:37;-1.30;1.00
1181;DHT22;579;52.046;8.532;2023-03-01T07:23:03;-1.20;1.00
1181;DHT22;579;52.046;8.532;2023-03-01T07:25:31;-1.30;1.00
1181;DHT22;579;52.046;8.532;2023-03-01T07:27:57;-1.20;1.00
1181;DHT22;579;52.046;8.532;2023-03-01T07:33:16;-1.10;1.00
1181;DHT22;579;52.046;8.532;2023-03-01T07:35:43;-1.10;1.00
1181;DHT22;579;52.046;8.532;2023-03-01T07:38:09;-1.00;1.00
1181;DHT22;579;52.046;8.532;2023-03-01T07:40:36;-0.80;1.00
1181;DHT22;579;52.046;8.532;2023-03-01T07:43:02;-0.60;1.00
1181;DHT22;579;52.046;8.532;2023-03-01T07:45:29;-0.30;1.00
1181;DHT22;579;52.046;8.532;2023-03-01T07:47:55;-0.20;1.00
1181;DHT22;579;52.046;8.532;2023-03-01T07:53:09;0.00;1.00
1181;DHT22;579;52.046;8.532;2023-03-01T07:55:35;0.10;1.00
1181;DHT22;579;52.046;8.532;2023-03-01T07:58:01;0.30;1.00
1181;DHT22;579;52.046;8.532;2023-03-01T08:00:28;0.20;1.00
1181;DHT22;579;52.046;8.532;2023-03-01T08:02:54;0.40;1.00
1181;DHT22;579;52.046;8.532;2023-03-01T08:05:20;0.40;1.00
1181;DHT22;579;52.046;8.532;2023-03-01T08:07:47;0.60;1.00
1181;DHT22;579;52.046;8.532;2023-03-01T08:12:56;0.80;1.00
1181;DHT22;579;52.046;8.532;2023-03-01T08:15:22;1.40;1.00
1181;DHT22;579;52.046;8.532;2023-03-01T08:17:49;1.40;1.00
1181;DHT22;579;52.046;8.532;2023-03-01T08:20:16;1.70;1.00
1181;DHT22;579;52.046;8.532;2023-03-01T08:22:42;1.80;1.00
1181;DHT22;579;52.046;8.532;2023-03-01T08:25:08;2.30;1.00
1181;DHT22;579;52.046;8.532;2023-03-01T08:27:35;2.20;1.00
1181;DHT22;579;52.046;8.532;2023-03-01T08:30:02;2.40;1.00
1181;DHT22;579;52.046;8.532;2023-03-01T08:37:34;2.70;1.00
1181;DHT22;579;52.046;8.532;2023-03-01T08:40:00;3.30;1.00
1181;DHT22;579;52.046;8.532;2023-03-01T08:42:26;3.50;1.00
1181;DHT22;579;52.046;8.532;2023-03-01T08:44:53;3.70;1.00
1181;DHT22;579;52.046;8.532;2023-03-01T08:47:19;4.00;1.00
1181;DHT22;579;52.046;8.532;2023-03-01T08:49:45;4.20;1.00
1181;DHT22;579;52.046;8.532;2023-03-01T08:52:11;4.50;1.00
1181;DHT22;579;52.046;8.532;2023-03-01T08:57:47;4.70;1.00
1181;DHT22;579;52.046;8.532;2023-03-01T09:00:13;5.50;1.00
1181;DHT22;579;52.046;8.532;2023-03-01T09:02:40;5.60;1.00
1181;DHT22;579;52.046;8.532;2023-03-01T09:05:07;5.80;1.00
1181;DHT22;579;52.046;8.532;2023-03-01T09:07:34;5.70;1.00
1181;DHT22;579;52.046;8.532;2023-03-01T09:10:00;6.00;1.00
1181;DHT22;579;52.046;8.532;2023-03-01T09:12:26;6.10;1.00
1181;DHT22;579;52.046;8.532;2023-03-01T09:14:53;6.50;1.00
1181;DHT22;579;52.046;8.532;2023-03-01T09:23:56;7.40;1.00
1181;DHT22;579;52.046;8.532;2023-03-01T09:26:23;8.10;1.00
1181;DHT22;579;52.046;8.532;2023-03-01T09:28:51;8.50;1.00
1181;DHT22;579;52.046;8.532;2023-03-01T09:31:20;8.70;1.00
1181;DHT22;579;52.046;8.532;2023-03-01T09:33:49;8.70;1.00
1181;DHT22;579;52.046;8.532;2023-03-01T09:36:18;8.80;1.00
1181;DHT22;579;52.046;8.532;2023-03-01T09:38:46;8.70;1.00
1181;DHT22;579;52.046;8.532;2023-03-01T09:41:26;8.90;1.00
1181;DHT22;579;52.046;8.532;2023-03-01T09:44:13;9.20;1.00
1181;DHT22;579;52.046;8.532;2023-03-01T09:46:45;9.30;1.00
1181;DHT22;579;52.046;8.532;2023-03-01T09:49:15;9.20;1.00
1181;DHT22;579;52.046;8.532;2023-03-01T09:51:43;9.60;1.00
1181;DHT22;579;52.046;8.532;2023-03-01T09:54:19;9.80;1.00
1181;DHT22;579;52.046;8.532;2023-03-01T09:56:51;10.30;1.00
1181;DHT22;579;52.046;8.532;2023-03-01T09:59:26;10.70;1.00
1181;DHT22;579;52.046;8.532;2023-03-01T10:04:48;10.80;1.00
1181;DHT22;579;52.046;8.532;2023-03-01T10:07:27;10.20;1.00
1181;DHT22;579;52.046;8.532;2023-03-01T10:09:57;10.30;1.00
1181;DHT22;579;52.046;8.532;2023-03-01T10:12:32;10.20;1.00
1181;DHT22;579;52.046;8.532;2023-03-01T10:15:04;9.90;1.00
1181;DHT22;579;52.046;8.532;2023-03-01T10:17:36;9.60;1.00
1181;DHT22;579;52.046;8.532;2023-03-01T10:24:10;9.30;1.00
1181;DHT22;579;52.046;8.532;2023-03-01T10:26:48;9.10;1.00
1181;DHT22;579;52.046;8.532;2023-03-01T10:29:23;8.70;1.00
1181;DHT22;579;52.046;8.532;2023-03-01T10:31:52;8.50;1.00
1181;DHT22;579;52.046;8.532;2023-03-01T10:34:21;8.50;1.00
1181;DHT22;579;52.046;8.532;2023-03-01T10:36:53;8.30;1.00
1181;DHT22;579;52.046;8.532;2023-03-01T10:39:23;8.30;1.00
1181;DHT22;579;52.046;8.532;2023-03-01T10:42:00;8.30;1.00
1181;DHT22;579;52.046;8.532;2023-03-01T10:49:39;8.00;1.00
1181;DHT22;579;52.046;8.532;2023-03-01T10:52:17;8.00;1.00
1181;DHT22;579;52.046;8.532;2023-03-01T10:54:52;8.30;1.00
1181;DHT22;579;52.046;8.532;2023-03-01T10:57:41;7.90;1.00
1181;DHT22;579;52.046;8.532;2023-03-01T11:00:22;7.90;1.00
1181;DHT22;579;52.046;8.532;2023-03-01T11:03:02;8.00;1.00
1181;DHT22;579;52.046;8.532;2023-03-01T11:05:35;7.90;1.00
1181;DHT22;579;52.046;8.532;2023-03-01T11:15:25;8.10;1.00
1181;DHT22;579;52.046;8.532;2023-03-01T11:17:53;8.10;1.00
1181;DHT22;579;52.046;8.532;2023-03-01T11:20:26;8.10;1.00
1181;DHT22;579;52.046;8.532;2023-03-01T11:22:55;8.20;1.00
1181;DHT22;579;52.046;8.532;2023-03-01T11:25:25;8.20;1.00
1181;DHT22;579;52.046;8.532;2023-03-01T11:27:54;8.10;1.00
1181;DHT22;579;52.046;8.532;2023-03-01T11:30:26;8.10;1.00
1181;DHT22;579;52.046;8.532;2023-03-01T11:33:20;8.10;1.00
1181;DHT22;579;52.046;8.532;2023-03-01T11:35:58;8.00;1.00
1181;DHT22;579;52.046;8.532;2023-03-01T11:38:28;8.10;1.00
1181;DHT22;579;52.046;8.532;2023-03-01T11:41:01;8.50;1.00
1181;DHT22;579;52.046;8.532;2023-03-01T11:43:37;8.50;1.00
1181;DHT22;579;52.046;8.532;2023-03-01T11:46:49;8.90;1.00
1181;DHT22;579;52.046;8.532;2023-03-01T11:49:48;9.00;1.00
1181;DHT22;579;52.046;8.532;2023-03-01T11:55:29;8.70;1.00
1181;DHT22;579;52.046;8.532;2023-03-01T11:58:14;8.60;1.00
1181;DHT22;579;52.046;8.532;2023-03-01T12:01:08;8.50;1.00
1181;DHT22;579;52.046;8.532;2023-03-01T12:04:07;8.60;1.00
1181;DHT22;579;52.046;8.532;2023-03-01T12:06:52;8.80;1.00
1181;DHT22;579;52.046;8.532;2023-03-01T12:15:45;9.20;1.00
1181;DHT22;579;52.046;8.532;2023-03-01T12:18:55;9.00;1.00
1181;DHT22;579;52.046;8.532;2023-03-01T12:21:39;9.40;1.00
1181;DHT22;579;52.046;8.532;2023-03-01T12:24:28;9.60;1.00
1181;DHT22;579;52.046;8.532;2023-03-01T12:27:16;9.70;1.00
1181;DHT22;579;52.046;8.532;2023-03-01T12:29:59;10.10;1.00
1181;DHT22;579;52.046;8.532;2023-03-01T12:35:51;10.70;1.00
1181;DHT22;579;52.046;8.532;2023-03-01T12:38:32;10.60;1.00
1181;DHT22;579;52.046;8.532;2023-03-01T12:41:26;10.20;1.00
1181;DHT22;579;52.046;8.532;2023-03-01T12:44:05;10.30;1.00
1181;DHT22;579;52.046;8.532;2023-03-01T12:46:46;10.10;1.00
1181;DHT22;579;52.046;8.532;2023-03-01T12:49:23;9.80;1.00
1181;DHT22;579;52.046;8.532;2023-03-01T12:54:36;9.90;1.00
1181;DHT22;579;52.046;8.532;2023-03-01T12:57:08;10.00;1.00
1181;DHT22;579;52.046;8.532;2023-03-01T12:59:45;10.20;1.00
1181;DHT22;579;52.046;8.532;2023-03-01T13:02:22;10.20;1.00
1181;DHT22;579;52.046;8.532;2023-03-01T13:05:17;10.20;1.00
1181;DHT22;579;52.046;8.532;2023-03-01T13:07:54;10.40;1.00
1181;DHT22;579;52.046;8.532;2023-03-01T13:14:46;11.30;1.00
1181;DHT22;579;52.046;8.532;2023-03-01T13:17:43;12.40;1.00
1181;DHT22;579;52.046;8.532;2023-03-01T13:20:14;12.90;1.00
1181;DHT22;579;52.046;8.532;2023-03-01T13:22:41;12.60;1.00
1181;DHT22;579;52.046;8.532;2023-03-01T13:25:16;12.60;1.00
1181;DHT22;579;52.046;8.532;2023-03-01T13:27:44;12.90;1.00
1181;DHT22;579;52.046;8.532;2023-03-01T13:33:42;14.10;1.00
1181;DHT22;579;52.046;8.532;2023-03-01T13:36:10;13.80;1.00
1181;DHT22;579;52.046;8.532;2023-03-01T13:38:48;13.50;1.00
1181;DHT22;579;52.046;8.532;2023-03-01T13:41:48;13.50;1.00
1181;DHT22;579;52.046;8.532;2023-03-01T13:44:21;13.50;1.00
1181;DHT22;579;52.046;8.532;2023-03-01T13:46:53;13.60;1.00
1181;DHT22;579;52.046;8.532;2023-03-01T13:56:09;14.60;1.00
1181;DHT22;579;52.046;8.532;2023-03-01T13:58:47;14.20;1.00
1181;DHT22;579;52.046;8.532;2023-03-01T14:01:22;14.30;1.00
1181;DHT22;579;52.046;8.532;2023-03-01T14:03:50;14.90;1.00
1181;DHT22;579;52.046;8.532;2023-03-01T14:06:24;15.60;1.00
1181;DHT22;579;52.046;8.532;2023-03-01T14:09:00;15.20;1.00
1181;DHT22;579;52.046;8.532;2023-03-01T14:11:54;15.00;1.00
1181;DHT22;579;52.046;8.532;2023-03-01T14:20:18;15.50;1.00
1181;DHT22;579;52.046;8.532;2023-03-01T14:22:47;16.20;1.00
1181;DHT22;579;52.046;8.532;2023-03-01T14:25:21;16.60;1.00
1181;DHT22;579;52.046;8.532;2023-03-01T14:27:56;16.80;1.00
1181;DHT22;579;52.046;8.532;2023-03-01T14:30:26;16.70;1.00
1181;DHT22;579;52.046;8.532;2023-03-01T14:39:35;17.70;1.00
1181;DHT22;579;52.046;8.532;2023-03-01T14:42:04;19.00;1.00
1181;DHT22;579;52.046;8.532;2023-03-01T14:44:30;19.30;1.00
1181;DHT22;579;52.046;8.532;2023-03-01T14:46:59;19.70;1.00
1181;DHT22;579;52.046;8.532;2023-03-01T14:49:30;19.30;1.00
1181;DHT22;579;52.046;8.532;2023-03-01T14:51:59;19.70;1.00
1181;DHT22;579;52.046;8.532;2023-03-01T14:54:31;20.40;1.00
1181;DHT22;579;52.046;8.532;2023-03-01T14:57:05;20.80;1.00
1181;DHT22;579;52.046;8.532;2023-03-01T15:04:37;22.10;1.00
1181;DHT22;579;52.046;8.532;2023-03-01T15:07:04;23.70;1.00
1181;DHT22;579;52.046;8.532;2023-03-01T15:09:31;24.20;1.00
1181;DHT22;579;52.046;8.532;2023-03-01T15:11:58;24.50;1.00
1181;DHT22;579;52.046;8.532;2023-03-01T15:14:29;25.00;1.00
1181;DHT22;579;52.046;8.532;2023-03-01T15:17:19;25.10;1.00
1181;DHT22;579;52.046;8.532;2023-03-01T15:19:47;25.60;1.00
1181;DHT22;579;52.046;8.532;2023-03-01T15:26:37;26.50;1.00
1181;DHT22;579;52.046;8.532;2023-03-01T15:29:15;26.70;1.00
1181;DHT22;579;52.046;8.532;2023-03-01T15:31:43;26.50;1.00
1181;DHT22;579;52.046;8.532;2023-03-01T15:34:19;26.50;1.00
1181;DHT22;579;52.046;8.532;2023-03-01T15:36:48;26.50;1.00
1181;DHT22;579;52.046;8.532;2023-03-01T15:39:34;26.70;1.00
1181;DHT22;579;52.046;8.532;2023-03-01T15:42:05;28.30;1.00
1181;DHT22;579;52.046;8.532;2023-03-01T15:47:36;26.90;1.00
1181;DHT22;579;52.046;8.532;2023-03-01T15:50:11;26.90;1.00
1181;DHT22;579;52.046;8.532;2023-03-01T15:52:42;26.80;1.00
1181;DHT22;579;52.046;8.532;2023-03-01T15:55:16;27.70;1.00
1181;DHT22;579;52.046;8.532;2023-03-01T15:57:43;26.40;1.00
1181;DHT22;579;52.046;8.532;2023-03-01T16:00:11;26.20;1.00
1181;DHT22;579;52.046;8.532;2023-03-01T16:02:40;24.90;1.00
1181;DHT22;579;52.046;8.532;2023-03-01T16:05:19;22.40;1.00
1181;DHT22;579;52.046;8.532;2023-03-01T16:12:51;17.80;1.00
1181;DHT22;579;52.046;8.532;2023-03-01T16:15:20;15.10;1.00
1181;DHT22;579;52.046;8.532;2023-03-01T16:17:47;14.10;1.00
1181;DHT22;579;52.046;8.532;2023-03-01T16:20:14;13.70;1.00
1181;DHT22;579;52.046;8.532;2023-03-01T16:22:41;13.20;1.00
1181;DHT22;579;52.046;8.532;2023-03-01T16:25:09;13.00;1.00
1181;DHT22;579;52.046;8.532;2023-03-01T16:27:35;12.30;1.00
1181;DHT22;579;52.046;8.532;2023-03-01T16:30:02;11.70;1.00
1181;DHT22;579;52.046;8.532;2023-03-01T16:37:32;10.80;1.00
1181;DHT22;579;52.046;8.532;2023-03-01T16:39:59;10.20;1.00
1181;DHT22;579;52.046;8.532;2023-03-01T16:42:25;10.00;1.00
1181;DHT22;579;52.046;8.532;2023-03-01T16:44:54;9.80;1.00
1181;DHT22;579;52.046;8.532;2023-03-01T16:47:21;9.60;1.00
1181;DHT22;579;52.046;8.532;2023-03-01T16:49:47;9.20;1.00
1181;DHT22;579;52.046;8.532;2023-03-01T16:52:13;9.00;1.00
1181;DHT22;579;52.046;8.532;2023-03-01T16:54:40;8.90;1.00
1181;DHT22;579;52.046;8.532;2023-03-01T17:02:08;8.60;1.00
1181;DHT22;579;52.046;8.532;2023-03-01T17:04:36;8.70;1.00
1181;DHT22;579;52.046;8.532;2023-03-01T17:07:02;8.60;1.00
1181;DHT22;579;52.046;8.532;2023-03-01T17:09:28;8.60;1.00
1181;DHT22;579;52.046;8.532;2023-03-01T17:11:55;8.50;1.00
1181;DHT22;579;52.046;8.532;2023-03-01T17:14:21;8.40;1.00
1181;DHT22;579;52.046;8.532;2023-03-01T17:16:47;8.40;1.00
1181;DHT22;579;52.046;8.532;2023-03-01T17:21:53;8.20;1.00
1181;DHT22;579;52.046;8.532;2023-03-01T17:24:19;8.00;1.00
1181;DHT22;579;52.046;8.532;2023-03-01T17:26:46;7.80;1.00
1181;DHT22;579;52.046;8.532;2023-03-01T17:29:12;7.60;1.00
1181;DHT22;579;52.046;8.532;2023-03-01T17:31:38;7.60;1.00
1181;DHT22;579;52.046;8.532;2023-03-01T17:34:05;7.70;1.00
1181;DHT22;579;52.046;8.532;2023-03-01T17:36:31;7.70;1.00
1181;DHT22;579;52.046;8.532;2023-03-01T17:38:59;7.70;1.00
1181;DHT22;579;52.046;8.532;2023-03-01T17:46:31;7.50;1.00
1181;DHT22;579;52.046;8.532;2023-03-01T17:48:57;7.50;1.00
1181;DHT22;579;52.046;8.532;2023-03-01T17:51:23;7.50;1.00
1181;DHT22;579;52.046;8.532;2023-03-01T17:53:52;7.50;1.00
1181;DHT22;579;52.046;8.532;2023-03-01T17:56:18;7.20;1.00
1181;DHT22;579;52.046;8.532;2023-03-01T17:58:45;7.10;1.00
1181;DHT22;579;52.046;8.532;2023-03-01T18:01:13;7.20;1.00
1181;DHT22;579;52.046;8.532;2023-03-01T18:06:22;7.10;1.00
1181;DHT22;579;52.046;8.532;2023-03-01T18:08:49;6.70;1.00
1181;DHT22;579;52.046;8.532;2023-03-01T18:11:17;6.90;1.00
1181;DHT22;579;52.046;8.532;2023-03-01T18:13:45;6.90;1.00
1181;DHT22;579;52.046;8.532;2023-03-01T18:16:14;6.70;1.00
1181;DHT22;579;52.046;8.532;2023-03-01T18:18:42;6.50;1.00
1181;DHT22;579;52.046;8.532;2023-03-01T18:21:10;6.50;1.00
1181;DHT22;579;52.046;8.532;2023-03-01T18:23:38;6.40;1.00
1181;DHT22;579;52.046;8.532;2023-03-01T18:31:17;6.30;1.00
1181;DHT22;579;52.046;8.532;2023-03-01T18:33:47;6.40;1.00
1181;DHT22;579;52.046;8.532;2023-03-01T18:36:19;6.10;1.00
1181;DHT22;579;52.046;8.532;2023-03-01T18:38:47;5.90;1.00
1181;DHT22;579;52.046;8.532;2023-03-01T18:41:13;5.50;1.00
1181;DHT22;579;52.046;8.532;2023-03-01T18:43:40;5.30;1.00
1181;DHT22;579;52.046;8.532;2023-03-01T18:46:06;5.50;1.00
1181;DHT22;579;52.046;8.532;2023-03-01T18:51:17;5.70;1.00
1181;DHT22;579;52.046;8.532;2023-03-01T18:53:44;5.90;1.00
1181;DHT22;579;52.046;8.532;2023-03-01T18:56:11;5.70;1.00
1181;DHT22;579;52.046;8.532;2023-03-01T18:58:38;5.70;1.00
1181;DHT22;579;52.046;8.532;2023-03-01T19:01:12;5.70;1.00
1181;DHT22;579;52.046;8.532;2023-03-01T19:03:39;5.60;1.00
1181;DHT22;579;52.046;8.532;2023-03-01T19:06:05;5.80;1.00
1181;DHT22;579;52.046;8.532;2023-03-01T19:13:38;5.90;1.00
1181;DHT22;579;52.046;8.532;2023-03-01T19:16:07;5.90;1.00
1181;DHT22;579;52.046;8.532;2023-03-01T19:18:35;5.70;1.00
1181;DHT22;579;52.046;8.532;2023-03-01T19:21:05;5.60;1.00
1181;DHT22;579;52.046;8.532;2023-03-01T19:23:32;5.30;1.00
1181;DHT22;579;52.046;8.532;2023-03-01T19:26:00;5.40;1.00
1181;DHT22;579;52.046;8.532;2023-03-01T19:28:27;5.40;1.00
1181;DHT22;579;52.046;8.532;2023-03-01T19:33:35;5.20;1.00
1181;DHT22;579;52.046;8.532;2023-03-01T19:36:03;5.30;1.00
1181;DHT22;579;52.046;8.532;2023-03-01T19:38:29;5.30;1.00
1181;DHT22;579;52.046;8.532;2023-03-01T19:40:56;5.50;1.00
1181;DHT22;579;52.046;8.532;2023-03-01T19:43:22;5.80;1.00
1181;DHT22;579;52.046;8.532;2023-03-01T19:45:50;5.60;1.00
1181;DHT22;579;52.046;8.532;2023-03-01T19:48:16;5.30;1.00
1181;DHT22;579;52.046;8.532;2023-03-01T19:50:43;5.40;1.00
1181;DHT22;579;52.046;8.532;2023-03-01T19:58:13;5.40;1.00
1181;DHT22;579;52.046;8.532;2023-03-01T20:00:44;5.20;1.00
1181;DHT22;579;52.046;8.532;2023-03-01T20:03:11;5.60;1.00
1181;DHT22;579;52.046;8.532;2023-03-01T20:05:38;5.40;1.00
1181;DHT22;579;52.046;8.532;2023-03-01T20:08:05;5.60;1.00
1181;DHT22;579;52.046;8.532;2023-03-01T20:10:32;5.50;1.00
1181;DHT22;579;52.046;8.532;2023-03-01T20:12:59;5.50;1.00
1181;DHT22;579;52.046;8.532;2023-03-01T20:15:27;5.30;1.00
1181;DHT22;579;52.046;8.532;2023-03-01T20:20:33;5.20;1.00
1181;DHT22;579;52.046;8.532;2023-03-01T20:23:00;4.90;1.00
1181;DHT22;579;52.046;8.532;2023-03-01T20:25:26;5.00;1.00
1181;DHT22;579;52.046;8.532;2023-03-01T20:27:52;4.80;1.00
1181;DHT22;579;52.046;8.532;2023-03-01T20:30:18;4.70;1.00
1181;DHT22;579;52.046;8.532;2023-03-01T20:32:45;4.70;1.00